createdAt,value
2023-09-10T00:02:52.000Z,11.07
2023-09-10T00:07:53.000Z,11.03
2023-09-10T00:12:52.000Z,10.99
2023-09-10T00:17:52.000Z,10.94
2023-09-10T00:22:52.000Z,10.91
2023-09-10T00:27:52.000Z,10.89
2023-09-10T00:32:53.000Z,10.86
2023-09-10T00:37:53.000Z,10.83
2023-09-10T00:42:53.000Z,10.8
2023-09-10T00:47:53.000Z,10.77
2023-09-10T00:52:52.000Z,10.7
2023-09-10T00:57:53.000Z,10.65
2023-09-10T01:02:52.000Z,10.61
2023-09-10T01:07:53.000Z,10.6
2023-09-10T01:12:53.000Z,10.58
2023-09-10T01:17:53.000Z,10.56
2023-09-10T01:22:53.000Z,10.54
2023-09-10T01:27:53.000Z,10.55
2023-09-10T01:32:53.000Z,10.53
2023-09-10T01:37:53.000Z,10.53
2023-09-10T01:42:53.000Z,10.45
2023-09-10T01:47:53.000Z,10.42
2023-09-10T01:52:53.000Z,10.4
2023-09-10T01:57:52.000Z,10.38
2023-09-10T02:02:53.000Z,10.35
2023-09-10T02:07:53.000Z,10.34
2023-09-10T02:12:53.000Z,10.35
2023-09-10T02:17:55.000Z,10.35
2023-09-10T02:22:53.000Z,10.32
2023-09-10T02:27:53.000Z,10.32
2023-09-10T02:32:53.000Z,10.28
2023-09-10T02:37:53.000Z,10.28
2023-09-10T02:42:52.000Z,10.27
2023-09-10T02:47:53.000Z,10.28
2023-09-10T02:52:53.000Z,10.34
2023-09-10T02:57:52.000Z,10.45
2023-09-10T03:02:53.000Z,10.56
2023-09-10T03:07:53.000Z,10.6
2023-09-10T03:12:53.000Z,10.57
2023-09-10T03:17:56.000Z,10.55
2023-09-10T03:22:52.000Z,10.52
2023-09-10T03:27:52.000Z,10.51
2023-09-10T03:32:53.000Z,10.56
2023-09-10T03:37:53.000Z,10.74
2023-09-10T03:42:52.000Z,11.05
2023-09-10T03:47:53.000Z,11.28
2023-09-10T03:52:53.000Z,11.44
2023-09-10T03:57:53.000Z,11.53
2023-09-10T04:02:53.000Z,11.63
2023-09-10T04:07:52.000Z,11.71
2023-09-10T04:12:53.000Z,11.8
2023-09-10T04:17:53.000Z,11.85
2023-09-10T04:22:53.000Z,11.9
2023-09-10T04:27:52.000Z,11.97
2023-09-10T04:32:53.000Z,12.08
2023-09-10T04:37:52.000Z,12.16
2023-09-10T04:42:53.000Z,12.22
2023-09-10T04:47:54.000Z,12.28
2023-09-10T04:52:53.000Z,12.37
2023-09-10T04:57:52.000Z,12.49
2023-09-10T05:02:56.000Z,12.62
2023-09-10T05:07:53.000Z,12.78
2023-09-10T05:12:53.000Z,12.87
2023-09-10T05:17:52.000Z,12.88
2023-09-10T05:22:53.000Z,12.88
2023-09-10T05:27:52.000Z,12.85
2023-09-10T05:32:52.000Z,12.84
2023-09-10T05:37:52.000Z,12.92
2023-09-10T05:42:52.000Z,12.99
2023-09-10T05:47:52.000Z,13.02
2023-09-10T05:52:53.000Z,13.01
2023-09-10T05:57:53.000Z,13.05
2023-09-10T06:02:53.000Z,13.01
2023-09-10T06:07:53.000Z,13.07
2023-09-10T06:12:53.000Z,13.19
2023-09-10T06:17:53.000Z,13.31
2023-09-10T06:22:53.000Z,13.43
2023-09-10T06:27:53.000Z,13.49
2023-09-10T06:32:53.000Z,13.47
2023-09-10T06:37:53.000Z,13.57
2023-09-10T06:42:53.000Z,13.65
2023-09-10T06:47:53.000Z,13.77
2023-09-10T06:52:53.000Z,13.72
2023-09-10T06:57:53.000Z,13.74
2023-09-10T07:02:53.000Z,13.8
2023-09-10T07:07:53.000Z,13.83
2023-09-10T07:12:53.000Z,13.78
2023-09-10T07:17:53.000Z,13.73
2023-09-10T07:22:52.000Z,13.72
2023-09-10T07:27:52.000Z,13.8
2023-09-10T07:32:53.000Z,13.82
2023-09-10T07:37:53.000Z,13.85
2023-09-10T07:42:52.000Z,13.84
2023-09-10T07:47:53.000Z,13.86
2023-09-10T07:52:53.000Z,13.95
2023-09-10T07:57:53.000Z,13.94
2023-09-10T08:02:53.000Z,14.03
2023-09-10T08:07:53.000Z,13.97
2023-09-10T08:12:52.000Z,14
2023-09-10T08:17:54.000Z,14.27
2023-09-10T08:22:53.000Z,14.5
2023-09-10T08:27:53.000Z,14.63
2023-09-10T08:32:53.000Z,14.87
2023-09-10T08:37:53.000Z,15.16
2023-09-10T08:42:53.000Z,15.28
2023-09-10T08:47:53.000Z,15.22
2023-09-10T08:52:53.000Z,15.01
2023-09-10T08:57:52.000Z,14.97
2023-09-10T09:02:53.000Z,14.87
2023-09-10T09:07:52.000Z,15.04
2023-09-10T09:12:53.000Z,15.26
2023-09-10T09:17:53.000Z,15.05
2023-09-10T09:22:53.000Z,14.96
2023-09-10T09:27:52.000Z,14.96
2023-09-10T09:32:53.000Z,15.04
2023-09-10T09:37:53.000Z,14.98
2023-09-10T09:42:52.000Z,15.07
2023-09-10T09:47:53.000Z,14.97
2023-09-10T09:52:52.000Z,14.84
2023-09-10T09:57:53.000Z,14.86
2023-09-10T10:02:53.000Z,15.04
2023-09-10T10:08:02.000Z,15.05
2023-09-10T10:12:52.000Z,15.11
2023-09-10T10:18:01.000Z,15.22
2023-09-10T10:22:53.000Z,15.21
2023-09-10T10:27:52.000Z,15.18
2023-09-10T10:32:53.000Z,15.37
2023-09-10T10:37:52.000Z,15.32
2023-09-10T10:42:52.000Z,15.29
2023-09-10T10:48:00.000Z,15.35
2023-09-10T10:52:54.000Z,15.34
2023-09-10T10:57:53.000Z,15.13
2023-09-10T11:02:53.000Z,15.16
2023-09-10T11:07:53.000Z,15.37
2023-09-10T11:12:53.000Z,15.34
2023-09-10T11:17:53.000Z,15.32
2023-09-10T11:22:52.000Z,15.46
2023-09-10T11:27:53.000Z,15.55
2023-09-10T11:32:56.000Z,15.5
2023-09-10T11:37:52.000Z,15.57
2023-09-10T11:42:53.000Z,15.72
2023-09-10T11:47:54.000Z,15.76
2023-09-10T11:52:52.000Z,15.65
2023-09-10T11:57:52.000Z,15.65
2023-09-10T12:02:53.000Z,15.85
2023-09-10T12:07:53.000Z,15.87
2023-09-10T12:12:52.000Z,15.83
2023-09-10T12:17:53.000Z,15.61
2023-09-10T12:22:53.000Z,15.41
2023-09-10T12:27:53.000Z,15.2
2023-09-10T12:32:52.000Z,15.01
2023-09-10T12:37:53.000Z,15.08
2023-09-10T12:42:52.000Z,15.16
2023-09-10T12:47:53.000Z,15.23
2023-09-10T12:52:53.000Z,15.11
2023-09-10T12:57:52.000Z,14.9
2023-09-10T13:02:52.000Z,15
2023-09-10T13:07:53.000Z,15.04
2023-09-10T13:12:53.000Z,14.8
2023-09-10T13:17:52.000Z,14.79
2023-09-10T13:22:53.000Z,14.85
2023-09-10T13:27:52.000Z,14.9
2023-09-10T13:32:53.000Z,14.96
2023-09-10T13:37:52.000Z,14.98
2023-09-10T13:42:53.000Z,14.91
2023-09-10T13:47:53.000Z,14.92
2023-09-10T13:52:52.000Z,14.76
2023-09-10T13:57:53.000Z,14.71
2023-09-10T14:02:52.000Z,14.62
2023-09-10T14:07:51.000Z,14.65
2023-09-10T14:12:52.000Z,14.54
2023-09-10T14:17:53.000Z,14.41
2023-09-10T14:22:52.000Z,14.47
2023-09-10T14:27:52.000Z,14.52
2023-09-10T14:32:53.000Z,14.5
2023-09-10T14:37:53.000Z,14.4
2023-09-10T14:42:53.000Z,14.37
2023-09-10T14:47:53.000Z,14.3
2023-09-10T14:52:53.000Z,14.25
2023-09-10T14:57:52.000Z,14.13
2023-09-10T15:02:53.000Z,14.09
2023-09-10T15:07:53.000Z,14.03
2023-09-10T15:12:52.000Z,13.96
2023-09-10T15:17:53.000Z,13.89
2023-09-10T15:22:54.000Z,13.81
2023-09-10T15:27:52.000Z,13.73
2023-09-10T15:32:53.000Z,13.64
2023-09-10T15:37:53.000Z,13.53
2023-09-10T15:42:52.000Z,13.41
2023-09-10T15:47:53.000Z,13.31
2023-09-10T15:52:53.000Z,13.14
2023-09-10T15:57:53.000Z,12.94
2023-09-10T16:02:53.000Z,12.79
2023-09-10T16:07:53.000Z,12.61
2023-09-10T16:12:52.000Z,12.5
2023-09-10T16:17:53.000Z,12.38
2023-09-10T16:22:52.000Z,12.26
2023-09-10T16:27:53.000Z,12.12
2023-09-10T16:32:53.000Z,12.05
2023-09-10T16:37:53.000Z,11.95
2023-09-10T16:42:53.000Z,11.86
2023-09-10T16:47:53.000Z,11.77
2023-09-10T16:52:52.000Z,11.69
2023-09-10T16:58:27.000Z,11.6
2023-09-10T17:17:53.000Z,11.24
2023-09-10T17:23:00.000Z,11.07
2023-09-10T17:27:56.000Z,11.02
2023-09-10T17:32:52.000Z,10.94
2023-09-10T17:37:53.000Z,10.89
2023-09-10T17:42:53.000Z,10.84
2023-09-10T17:47:52.000Z,10.78
2023-09-10T17:52:53.000Z,10.7
2023-09-10T17:57:52.000Z,10.61
2023-09-10T18:02:53.000Z,10.53
2023-09-10T18:07:54.000Z,10.49
2023-09-10T18:17:54.000Z,10.4
2023-09-10T18:22:53.000Z,10.34
2023-09-10T18:27:53.000Z,10.21
2023-09-10T18:32:52.000Z,10.09
2023-09-10T18:37:53.000Z,9.96
2023-09-10T18:42:53.000Z,9.94
2023-09-10T18:47:52.000Z,9.91
2023-09-10T18:52:52.000Z,9.86
2023-09-10T18:57:52.000Z,9.81
2023-09-10T19:02:53.000Z,9.79
2023-09-10T19:07:52.000Z,9.76
2023-09-10T19:12:52.000Z,9.73
2023-09-10T19:17:52.000Z,9.69
2023-09-10T19:22:56.000Z,9.64
2023-09-10T19:27:53.000Z,9.56
2023-09-10T19:32:52.000Z,9.38
2023-09-10T19:37:52.000Z,9.34
2023-09-10T19:42:52.000Z,9.38
2023-09-10T19:47:53.000Z,9.38
2023-09-10T19:52:53.000Z,9.38
2023-09-10T19:57:52.000Z,9.35
2023-09-10T20:02:53.000Z,9.39
2023-09-10T20:07:53.000Z,9.41
2023-09-10T20:12:52.000Z,9.42
2023-09-10T20:17:53.000Z,9.44
2023-09-10T20:22:53.000Z,9.45
2023-09-10T20:27:53.000Z,9.46
2023-09-10T20:32:53.000Z,9.48
2023-09-10T20:37:53.000Z,9.46
2023-09-10T20:42:52.000Z,9.42
2023-09-10T20:47:52.000Z,9.4
2023-09-10T20:52:52.000Z,9.34
2023-09-10T20:57:52.000Z,9.29
2023-09-10T21:02:53.000Z,9.24
2023-09-10T21:07:52.000Z,9.2
2023-09-10T21:12:52.000Z,9.17
2023-09-10T21:17:52.000Z,9.12
2023-09-10T21:22:52.000Z,9.01
2023-09-10T21:27:53.000Z,8.9
2023-09-10T21:32:52.000Z,8.89
2023-09-10T21:37:52.000Z,8.88
2023-09-10T21:42:53.000Z,8.87
2023-09-10T21:47:52.000Z,8.86
2023-09-10T21:52:53.000Z,8.82
2023-09-10T21:57:53.000Z,8.78
2023-09-10T22:02:53.000Z,8.72
2023-09-10T22:07:52.000Z,8.6
2023-09-10T22:12:52.000Z,8.41
2023-09-10T22:17:53.000Z,8.31
2023-09-10T22:22:52.000Z,8.29
2023-09-10T22:27:52.000Z,8.28
2023-09-10T22:32:53.000Z,8.27
2023-09-10T22:37:52.000Z,8.26
2023-09-10T22:42:53.000Z,8.18
2023-09-10T22:47:53.000Z,8.15
2023-09-10T22:52:53.000Z,8.13
2023-09-10T22:57:53.000Z,8.08
2023-09-10T23:02:52.000Z,7.94
2023-09-10T23:07:52.000Z,7.79
2023-09-10T23:12:52.000Z,7.73
2023-09-10T23:17:56.000Z,7.72
2023-09-10T23:22:52.000Z,7.71
2023-09-10T23:27:53.000Z,7.66
2023-09-10T23:32:53.000Z,7.69
2023-09-10T23:37:52.000Z,7.7
2023-09-10T23:42:53.000Z,7.6
2023-09-10T23:47:53.000Z,7.55
2023-09-10T23:52:52.000Z,7.51
2023-09-10T23:57:53.000Z,7.51
